Time;durP1;ratioP1;P1;durP2;ratioP2;P2;SDS_P1;SDS_P2;PMS_P1;PMS_P2;Temp;Humidity;BMP_temperature;BMP_pressure;BME280_temperature;BME280_humidity;BME280_pressure;Samples;Min_cycle;Max_cycle;Signal;HPM_P1;HPM_P2
2024/04/07 00:02:21;;;;;;;21.93;20.40;;;;;;;;;;5032983;28;20487;-77
2024/04/07 00:04:48;;;;;;;22.47;21.27;;;;;;;;;;5031977;28;20420;-77
2024/04/07 00:07:14;;;;;;;21.87;20.67;;;;;;;;;;5032500;28;20429;-77
2024/04/07 00:09:41;;;;;;;21.20;20.00;;;;;;;;;;5031447;28;20418;-77
2024/04/07 00:12:08;;;;;;;21.40;20.10;;;;;;;;;;5031900;28;20458;-77
2024/04/07 00:14:35;;;;;;;21.40;20.30;;;;;;;;;;5032642;28;20428;-77
2024/04/07 00:17:03;;;;;;;21.50;20.20;;;;;;;;;;5022822;28;20778;-77
2024/04/07 00:19:31;;;;;;;22.80;21.30;;;;;;;;;;5031945;28;20461;-77
2024/04/07 00:21:57;;;;;;;21.97;20.57;;;;;;;;;;5032403;28;20472;-77
2024/04/07 00:24:24;;;;;;;22.57;21.17;;;;;;;;;;5032805;28;20436;-77
2024/04/07 00:26:50;;;;;;;22.57;20.90;;;;;;;;;;5032250;28;20486;-76
2024/04/07 00:29:17;;;;;;;21.67;20.47;;;;;;;;;;5036203;28;20456;-76
2024/04/07 00:31:44;;;;;;;22.90;21.60;;;;;;;;;;5032712;28;20523;-76
2024/04/07 00:34:12;;;;;;;20.80;19.70;;;;;;;;;;5034252;28;20428;-75
2024/04/07 00:36:38;;;;;;;21.60;20.30;;;;;;;;;;5036921;28;20432;-74
2024/04/07 00:39:08;;;;;;;21.70;20.30;;;;;;;;;;5041647;28;20460;-76
2024/04/07 00:41:34;;;;;;;21.33;20.13;;;;;;;;;;5035367;28;20471;-77
2024/04/07 00:44:01;;;;;;;22.20;20.90;;;;;;;;;;5038019;28;20461;-76
2024/04/07 00:46:27;;;;;;;21.83;20.37;;;;;;;;;;5036776;28;20499;-76
2024/04/07 00:48:54;;;;;;;21.33;19.97;;;;;;;;;;5036675;28;20423;-76
2024/04/07 00:51:21;;;;;;;20.87;19.80;;;;;;;;;;5036508;28;20447;-76
2024/04/07 00:53:49;;;;;;;21.57;20.33;;;;;;;;;;5036533;28;20452;-77
2024/04/07 00:56:15;;;;;;;21.87;20.47;;;;;;;;;;5043250;28;20444;-76
2024/04/07 00:58:43;;;;;;;21.60;20.40;;;;;;;;;;5036597;28;20430;-77
2024/04/07 01:01:09;;;;;;;20.90;19.80;;;;;;;;;;5046610;28;20463;-77
2024/04/07 01:03:36;;;;;;;22.43;21.13;;;;;;;;;;5044588;28;20491;-77
2024/04/07 01:06:02;;;;;;;21.20;19.83;;;;;;;;;;5036285;28;20472;-76
2024/04/07 01:08:31;;;;;;;21.53;20.03;;;;;;;;;;5036845;28;20425;-76
2024/04/07 01:10:57;;;;;;;22.33;20.80;;;;;;;;;;5036889;28;20440;-75
2024/04/07 01:13:27;;;;;;;21.53;20.13;;;;;;;;;;5035200;28;20471;-75
2024/04/07 01:15:54;;;;;;;21.97;20.47;;;;;;;;;;5036107;28;20721;-76
2024/04/07 01:18:21;;;;;;;21.57;20.07;;;;;;;;;;5034853;28;20436;-76
2024/04/07 01:20:47;;;;;;;21.17;19.87;;;;;;;;;;5036698;28;20907;-75
2024/04/07 01:23:18;;;;;;;21.63;20.20;;;;;;;;;;5038175;28;20981;-75
2024/04/07 01:25:44;;;;;;;20.77;19.67;;;;;;;;;;5033453;28;20464;-77
2024/04/07 01:28:12;;;;;;;21.63;20.17;;;;;;;;;;5017927;28;20937;-77
2024/04/07 01:30:38;;;;;;;22.27;20.80;;;;;;;;;;5019997;28;20465;-76
2024/04/07 01:33:05;;;;;;;21.33;19.93;;;;;;;;;;5020017;28;20456;-76
2024/04/07 01:35:31;;;;;;;22.10;20.70;;;;;;;;;;5019592;28;20481;-77
2024/04/07 01:37:59;;;;;;;21.00;19.87;;;;;;;;;;5020507;28;20445;-76
2024/04/07 01:40:26;;;;;;;21.27;20.10;;;;;;;;;;5018375;28;20885;-76
2024/04/07 01:42:55;;;;;;;21.90;20.40;;;;;;;;;;5018497;28;20968;-78
2024/04/07 01:45:21;;;;;;;21.57;20.30;;;;;;;;;;5019337;28;20823;-76
2024/04/07 01:47:48;;;;;;;22.20;20.80;;;;;;;;;;5018549;28;20946;-77
2024/04/07 01:50:14;;;;;;;21.03;19.93;;;;;;;;;;5019814;28;20459;-76
2024/04/07 01:52:42;;;;;;;21.53;20.00;;;;;;;;;;5015974;28;20523;-76
2024/04/07 01:55:08;;;;;;;21.03;19.93;;;;;;;;;;5014605;28;20433;-77
2024/04/07 01:57:37;;;;;;;21.87;20.67;;;;;;;;;;5014963;28;20967;-76
2024/04/07 02:00:07;;;;;;;21.50;20.10;;;;;;;;;;5018502;28;20429;-78
2024/04/07 02:02:34;;;;;;;21.10;19.90;;;;;;;;;;5015084;28;20540;-77
2024/04/07 02:05:00;;;;;;;20.87;19.77;;;;;;;;;;5016733;28;20481;-75
2024/04/07 02:07:27;;;;;;;21.77;20.37;;;;;;;;;;5015949;28;20420;-76
2024/04/07 02:09:53;;;;;;;21.03;19.30;;;;;;;;;;5013959;28;21075;-76
2024/04/07 02:12:20;;;;;;;22.17;20.40;;;;;;;;;;5014730;28;20467;-76
2024/04/07 02:14:48;;;;;;;20.63;19.47;;;;;;;;;;5014006;28;20933;-76
2024/04/07 02:17:15;;;;;;;21.53;20.33;;;;;;;;;;5014162;28;20449;-77
2024/04/07 02:19:41;;;;;;;20.83;19.73;;;;;;;;;;5013618;28;20424;-76
2024/04/07 02:22:09;;;;;;;21.17;19.80;;;;;;;;;;5013741;28;20538;-75
2024/04/07 02:24:35;;;;;;;21.77;20.47;;;;;;;;;;5014514;28;20424;-75
2024/04/07 02:27:02;;;;;;;21.70;20.43;;;;;;;;;;5014501;28;20431;-76
2024/04/07 02:29:28;;;;;;;21.03;19.70;;;;;;;;;;5014087;28;20455;-76
2024/04/07 02:31:57;;;;;;;21.20;19.90;;;;;;;;;;5014042;28;20531;-77
2024/04/07 02:34:23;;;;;;;21.60;20.37;;;;;;;;;;5014240;28;20435;-77
2024/04/07 02:36:51;;;;;;;22.00;20.37;;;;;;;;;;5013986;28;20432;-76
2024/04/07 02:39:18;;;;;;;22.77;20.90;;;;;;;;;;5012937;28;20458;-76
2024/04/07 02:41:46;;;;;;;21.27;19.97;;;;;;;;;;5013161;28;21012;-76
2024/04/07 02:44:12;;;;;;;23.10;21.37;;;;;;;;;;5012951;28;20813;-78
2024/04/07 02:49:25;;;;;;;21.23;19.93;;;;;;;;;;5012839;28;20448;-75
2024/04/07 02:51:52;;;;;;;20.27;19.20;;;;;;;;;;5013121;28;20466;-76
2024/04/07 02:54:19;;;;;;;21.53;19.60;;;;;;;;;;5013032;28;20461;-77
2024/04/07 02:56:45;;;;;;;21.43;20.10;;;;;;;;;;5013858;28;20453;-75
2024/04/07 02:59:12;;;;;;;21.20;19.37;;;;;;;;;;5012886;28;20468;-77
2024/04/07 03:01:38;;;;;;;21.37;19.73;;;;;;;;;;5013785;28;20470;-76
2024/04/07 03:04:05;;;;;;;22.53;20.83;;;;;;;;;;5021928;28;20862;-78
2024/04/07 03:06:33;;;;;;;21.50;20.20;;;;;;;;;;5013864;28;20458;-77
2024/04/07 03:09:00;;;;;;;21.33;20.03;;;;;;;;;;5013614;28;20438;-77
2024/04/07 03:11:26;;;;;;;21.37;20.00;;;;;;;;;;5013589;28;20441;-77
2024/04/07 03:13:53;;;;;;;20.70;19.50;;;;;;;;;;5013162;28;20448;-79
2024/04/07 03:16:19;;;;;;;21.43;20.23;;;;;;;;;;5016193;28;20461;-76
2024/04/07 03:18:46;;;;;;;21.53;20.20;;;;;;;;;;5014105;28;20482;-77
2024/04/07 03:21:12;;;;;;;21.30;19.90;;;;;;;;;;5013579;28;20502;-77
2024/04/07 03:23:41;;;;;;;21.70;20.50;;;;;;;;;;5014012;28;20452;-78
2024/04/07 03:26:07;;;;;;;22.10;20.70;;;;;;;;;;5026615;28;20944;-77
2024/04/07 03:28:34;;;;;;;20.60;19.40;;;;;;;;;;5022683;28;20451;-76
2024/04/07 03:31:03;;;;;;;21.53;19.90;;;;;;;;;;5018914;28;20487;-77
2024/04/07 03:33:31;;;;;;;21.50;20.00;;;;;;;;;;5018162;28;20492;-77
2024/04/07 03:36:03;;;;;;;21.03;19.73;;;;;;;;;;5018399;28;20450;-76
2024/04/07 03:38:30;;;;;;;21.00;19.63;;;;;;;;;;5018315;28;20474;-78
2024/04/07 03:40:58;;;;;;;21.87;20.23;;;;;;;;;;5020804;28;20482;-76
2024/04/07 03:43:26;;;;;;;21.67;20.30;;;;;;;;;;5018367;28;20508;-76
2024/04/07 03:45:59;;;;;;;21.87;20.30;;;;;;;;;;5017936;28;20428;-76
2024/04/07 03:48:26;;;;;;;21.57;20.17;;;;;;;;;;5017724;28;20401;-77
2024/04/07 03:50:54;;;;;;;21.27;19.97;;;;;;;;;;5017586;28;20458;-77
2024/04/07 03:53:20;;;;;;;21.40;20.00;;;;;;;;;;5016076;28;20909;-77
2024/04/07 03:55:47;;;;;;;21.57;20.17;;;;;;;;;;5014411;28;20515;-77
2024/04/07 03:58:14;;;;;;;21.23;19.90;;;;;;;;;;5027269;28;20471;-77
2024/04/07 04:00:41;;;;;;;22.43;21.13;;;;;;;;;;5017322;28;20489;-76
2024/04/07 04:03:07;;;;;;;21.17;19.87;;;;;;;;;;5019916;28;20448;-77
2024/04/07 04:05:34;;;;;;;21.50;20.30;;;;;;;;;;5018173;28;20492;-78
2024/04/07 04:08:00;;;;;;;21.87;20.27;;;;;;;;;;5017421;28;20444;-80
2024/04/07 04:10:27;;;;;;;21.20;19.70;;;;;;;;;;5016300;28;20487;-76
2024/04/07 04:12:53;;;;;;;23.00;20.93;;;;;;;;;;5017538;28;20448;-76
2024/04/07 04:15:22;;;;;;;21.10;19.80;;;;;;;;;;5016325;28;20945;-76
2024/04/07 04:17:49;;;;;;;21.83;20.13;;;;;;;;;;5014972;28;20442;-77
2024/04/07 04:20:16;;;;;;;22.57;21.17;;;;;;;;;;5014748;28;20546;-76
2024/04/07 04:22:43;;;;;;;22.13;20.63;;;;;;;;;;5013961;28;20535;-76
2024/04/07 04:25:10;;;;;;;23.03;21.33;;;;;;;;;;5014921;28;20455;-76
2024/04/07 04:27:36;;;;;;;22.80;21.10;;;;;;;;;;5014815;28;20428;-76
2024/04/07 04:30:04;;;;;;;22.40;20.63;;;;;;;;;;5014000;28;20477;-76
2024/04/07 04:32:32;;;;;;;23.53;21.83;;;;;;;;;;5013203;28;20482;-76
2024/04/07 04:34:59;;;;;;;24.27;22.60;;;;;;;;;;5014657;28;20482;-76
2024/04/07 04:37:25;;;;;;;22.60;21.03;;;;;;;;;;5015052;28;20450;-77
2024/04/07 04:39:52;;;;;;;22.70;21.17;;;;;;;;;;5013889;28;20457;-76
2024/04/07 04:42:22;;;;;;;23.40;21.90;;;;;;;;;;5013383;28;20490;-75
2024/04/07 04:44:49;;;;;;;23.33;21.57;;;;;;;;;;5012686;28;20457;-73
2024/04/07 04:47:15;;;;;;;23.37;21.57;;;;;;;;;;5012654;28;20450;-74
2024/04/07 04:49:44;;;;;;;21.50;20.00;;;;;;;;;;5011591;28;20421;-73
2024/04/07 04:52:10;;;;;;;22.77;21.10;;;;;;;;;;5011072;28;21041;-74
2024/04/07 04:54:37;;;;;;;22.40;20.63;;;;;;;;;;5011588;28;20463;-74
2024/04/07 04:57:03;;;;;;;22.87;21.13;;;;;;;;;;5011528;28;20430;-74
2024/04/07 04:59:30;;;;;;;22.37;20.87;;;;;;;;;;5010894;28;20518;-74
2024/04/07 05:01:56;;;;;;;22.10;20.80;;;;;;;;;;5010474;28;20538;-74
2024/04/07 05:04:23;;;;;;;22.87;20.77;;;;;;;;;;5011757;28;20438;-74
2024/04/07 05:06:50;;;;;;;22.90;21.30;;;;;;;;;;5011079;28;20437;-75
2024/04/07 05:09:17;;;;;;;23.00;21.50;;;;;;;;;;5011143;28;20441;-74
2024/04/07 05:11:44;;;;;;;22.17;20.50;;;;;;;;;;5017911;28;20446;-73
2024/04/07 05:14:11;;;;;;;22.43;21.00;;;;;;;;;;5015513;28;20872;-74
2024/04/07 05:16:37;;;;;;;21.67;20.33;;;;;;;;;;5017587;28;20454;-74
2024/04/07 05:19:05;;;;;;;22.27;20.93;;;;;;;;;;5017780;28;20781;-75
2024/04/07 05:21:31;;;;;;;21.90;20.60;;;;;;;;;;5014900;28;20498;-75
2024/04/07 05:24:01;;;;;;;21.60;20.20;;;;;;;;;;5014946;28;20552;-75
2024/04/07 05:26:27;;;;;;;21.83;20.23;;;;;;;;;;5015884;28;20449;-74
2024/04/07 05:28:54;;;;;;;21.73;20.10;;;;;;;;;;5015020;28;20589;-74
2024/04/07 05:31:20;;;;;;;21.23;19.97;;;;;;;;;;5015052;28;20852;-74
2024/04/07 05:33:48;;;;;;;22.57;21.17;;;;;;;;;;5014119;28;20532;-75
2024/04/07 05:36:14;;;;;;;20.63;19.40;;;;;;;;;;5014998;28;21077;-75
2024/04/07 05:38:42;;;;;;;21.30;19.83;;;;;;;;;;5014460;28;20521;-74
2024/04/07 05:41:10;;;;;;;20.80;19.50;;;;;;;;;;5015396;28;20473;-74
2024/04/07 05:43:37;;;;;;;22.07;20.57;;;;;;;;;;5014968;28;20456;-74
2024/04/07 05:46:03;;;;;;;21.50;20.20;;;;;;;;;;5014438;28;20475;-75
2024/04/07 05:48:31;;;;;;;21.60;20.27;;;;;;;;;;5014370;28;20580;-75
2024/04/07 05:50:57;;;;;;;22.10;20.43;;;;;;;;;;5014690;28;21003;-75
2024/04/07 05:53:24;;;;;;;21.23;19.80;;;;;;;;;;5014527;28;20933;-74
2024/04/07 05:55:50;;;;;;;21.00;19.90;;;;;;;;;;5015918;28;20481;-73
2024/04/07 05:58:18;;;;;;;21.00;19.50;;;;;;;;;;5014205;28;20420;-74
2024/04/07 06:00:45;;;;;;;21.17;19.97;;;;;;;;;;5016276;28;20454;-73
2024/04/07 06:03:12;;;;;;;21.87;20.47;;;;;;;;;;5031019;28;20499;-75
2024/04/07 06:05:39;;;;;;;22.30;20.70;;;;;;;;;;5037024;28;20460;-74
2024/04/07 06:08:07;;;;;;;21.53;20.17;;;;;;;;;;5033230;28;20860;-76
2024/04/07 06:10:35;;;;;;;21.87;20.47;;;;;;;;;;5033506;28;20431;-75
2024/04/07 06:13:02;;;;;;;20.30;19.30;;;;;;;;;;5022094;28;20437;-74
2024/04/07 06:15:30;;;;;;;21.27;19.90;;;;;;;;;;5013948;28;20429;-73
2024/04/07 06:17:57;;;;;;;21.37;20.17;;;;;;;;;;5013317;28;20815;-75
2024/04/07 06:20:23;;;;;;;22.67;21.17;;;;;;;;;;5012643;28;20447;-75
2024/04/07 06:22:49;;;;;;;21.03;19.67;;;;;;;;;;5012596;28;20871;-74
2024/04/07 06:25:15;;;;;;;21.50;20.20;;;;;;;;;;5016038;28;20421;-74
2024/04/07 06:27:42;;;;;;;20.43;19.23;;;;;;;;;;5022026;28;20420;-74
2024/04/07 06:30:09;;;;;;;20.70;19.37;;;;;;;;;;5012412;28;20506;-74
2024/04/07 06:32:37;;;;;;;20.70;19.50;;;;;;;;;;5013016;28;20483;-74
2024/04/07 06:35:04;;;;;;;21.50;20.10;;;;;;;;;;5012578;28;20450;-75
2024/04/07 06:37:31;;;;;;;21.97;20.47;;;;;;;;;;5015566;28;20455;-75
2024/04/07 06:39:57;;;;;;;20.87;19.67;;;;;;;;;;5024404;28;20455;-74
2024/04/07 06:42:25;;;;;;;21.03;19.80;;;;;;;;;;5013070;28;20447;-73
2024/04/07 06:44:53;;;;;;;21.63;20.33;;;;;;;;;;5012688;28;20499;-74
2024/04/07 06:47:20;;;;;;;21.30;19.80;;;;;;;;;;5013217;28;20520;-74
2024/04/07 06:49:49;;;;;;;22.27;20.67;;;;;;;;;;5012614;28;20422;-75
2024/04/07 06:52:16;;;;;;;21.40;20.00;;;;;;;;;;5013092;28;20479;-73
2024/04/07 06:54:43;;;;;;;21.87;20.57;;;;;;;;;;5012719;28;20533;-75
2024/04/07 06:57:10;;;;;;;21.73;20.03;;;;;;;;;;5013214;28;20421;-74
2024/04/07 06:59:36;;;;;;;21.07;19.80;;;;;;;;;;5012652;28;20490;-74
2024/04/07 07:02:04;;;;;;;21.53;20.33;;;;;;;;;;5012490;28;20471;-74
2024/04/07 07:04:30;;;;;;;21.63;20.17;;;;;;;;;;5025330;28;20485;-73
2024/04/07 07:06:58;;;;;;;20.40;19.03;;;;;;;;;;5031070;28;20432;-74
2024/04/07 07:09:25;;;;;;;21.93;20.40;;;;;;;;;;5011716;28;20454;-75
2024/04/07 07:11:52;;;;;;;21.63;20.33;;;;;;;;;;5011512;28;20505;-74
2024/04/07 07:14:18;;;;;;;21.80;20.03;;;;;;;;;;5012968;28;20481;-73
2024/04/07 07:16:45;;;;;;;21.00;19.70;;;;;;;;;;5013063;28;20449;-73
2024/04/07 07:19:11;;;;;;;22.67;21.00;;;;;;;;;;5013809;28;20462;-74
2024/04/07 07:21:38;;;;;;;21.27;19.87;;;;;;;;;;5012265;28;20470;-74
2024/04/07 07:24:06;;;;;;;22.20;20.70;;;;;;;;;;5011530;28;20490;-74
2024/04/07 07:26:33;;;;;;;21.57;19.90;;;;;;;;;;5012113;28;20463;-74
2024/04/07 07:28:59;;;;;;;21.20;20.00;;;;;;;;;;5011157;28;20824;-74
2024/04/07 07:31:27;;;;;;;22.00;20.60;;;;;;;;;;5030092;28;20476;-74
2024/04/07 07:33:53;;;;;;;22.43;20.83;;;;;;;;;;5031294;28;20456;-75
2024/04/07 07:36:20;;;;;;;23.40;21.40;;;;;;;;;;5031302;28;20970;-74
2024/04/07 07:38:47;;;;;;;22.10;20.83;;;;;;;;;;5032139;28;20456;-75
2024/04/07 07:41:18;;;;;;;22.40;21.10;;;;;;;;;;5032859;28;20596;-74
2024/04/07 07:43:44;;;;;;;22.77;21.37;;;;;;;;;;5031553;28;20546;-75
2024/04/07 07:46:11;;;;;;;22.63;21.23;;;;;;;;;;5030837;28;20866;-75
2024/04/07 07:48:39;;;;;;;22.10;20.60;;;;;;;;;;5031742;28;20425;-74
2024/04/07 07:51:08;;;;;;;23.27;21.70;;;;;;;;;;5030759;28;20973;-75
2024/04/07 07:53:35;;;;;;;22.97;21.67;;;;;;;;;;5031561;28;20462;-74
2024/04/07 07:56:02;;;;;;;22.97;21.30;;;;;;;;;;5031374;28;20508;-74
2024/04/07 07:58:29;;;;;;;23.27;21.87;;;;;;;;;;5030811;28;20443;-74
2024/04/07 08:00:56;;;;;;;22.23;20.83;;;;;;;;;;5031687;28;20556;-74
2024/04/07 08:03:24;;;;;;;23.43;21.83;;;;;;;;;;5031353;28;20609;-75
2024/04/07 08:05:51;;;;;;;24.90;23.20;;;;;;;;;;5032644;28;20470;-74
2024/04/07 08:08:17;;;;;;;24.83;23.17;;;;;;;;;;5030766;28;21340;-75
2024/04/07 08:10:44;;;;;;;22.60;21.20;;;;;;;;;;5032220;28;20966;-74
2024/04/07 08:13:11;;;;;;;23.90;22.30;;;;;;;;;;5028971;28;20477;-74
2024/04/07 08:15:41;;;;;;;22.97;21.50;;;;;;;;;;5030687;28;20429;-74
2024/04/07 08:18:08;;;;;;;23.27;21.77;;;;;;;;;;5030196;28;20444;-75
2024/04/07 08:20:36;;;;;;;23.43;21.83;;;;;;;;;;5030392;28;20440;-76
2024/04/07 08:23:03;;;;;;;22.33;20.83;;;;;;;;;;5029788;28;20482;-76
2024/04/07 08:25:30;;;;;;;23.43;22.07;;;;;;;;;;5029588;28;20429;-75
2024/04/07 08:27:57;;;;;;;22.73;21.30;;;;;;;;;;5030052;28;20815;-75
2024/04/07 08:30:24;;;;;;;22.77;21.37;;;;;;;;;;5022692;28;20827;-74
2024/04/07 08:32:52;;;;;;;23.53;22.17;;;;;;;;;;5027297;28;20479;-75
2024/04/07 08:35:18;;;;;;;23.70;22.37;;;;;;;;;;5029567;28;20548;-75
2024/04/07 08:37:45;;;;;;;22.70;21.20;;;;;;;;;;5029648;28;20495;-74
2024/04/07 08:40:11;;;;;;;22.30;20.77;;;;;;;;;;5029121;28;20455;-76
2024/04/07 08:42:40;;;;;;;23.87;22.17;;;;;;;;;;5029501;28;20485;-75
2024/04/07 08:45:07;;;;;;;23.57;21.77;;;;;;;;;;5028180;28;21246;-74
2024/04/07 08:47:35;;;;;;;21.13;19.93;;;;;;;;;;5030030;28;20843;-74
2024/04/07 08:50:02;;;;;;;23.40;21.90;;;;;;;;;;5029296;28;20455;-76
2024/04/07 08:52:30;;;;;;;21.57;20.33;;;;;;;;;;5029615;28;20481;-75
2024/04/07 08:54:56;;;;;;;22.70;21.40;;;;;;;;;;5029002;28;20890;-75
2024/04/07 08:57:24;;;;;;;22.83;21.33;;;;;;;;;;5032167;28;20848;-80
2024/04/07 08:59:51;;;;;;;22.67;21.27;;;;;;;;;;5046401;28;20450;-80
2024/04/07 09:02:20;;;;;;;23.40;21.97;;;;;;;;;;5038778;28;20846;-78
2024/04/07 09:04:46;;;;;;;24.30;22.70;;;;;;;;;;5035792;28;20478;-78
2024/04/07 09:07:18;;;;;;;23.97;22.20;;;;;;;;;;5036446;28;20460;-79
2024/04/07 09:09:44;;;;;;;23.30;21.80;;;;;;;;;;5035704;28;20444;-80
2024/04/07 09:12:11;;;;;;;23.60;22.10;;;;;;;;;;5038218;28;20550;-79
2024/04/07 09:14:39;;;;;;;22.90;21.17;;;;;;;;;;5056644;28;20441;-73
2024/04/07 09:17:06;;;;;;;23.20;21.80;;;;;;;;;;5053692;28;20448;-74
2024/04/07 09:19:32;;;;;;;22.10;20.77;;;;;;;;;;5033305;28;20560;-74
2024/04/07 09:21:59;;;;;;;22.57;20.73;;;;;;;;;;5031324;28;21098;-73
2024/04/07 09:24:27;;;;;;;22.00;20.80;;;;;;;;;;5024952;28;20822;-74
2024/04/07 09:26:55;;;;;;;23.07;21.40;;;;;;;;;;5032683;28;21240;-75
2024/04/07 09:29:22;;;;;;;23.10;21.70;;;;;;;;;;5039004;28;20470;-75
2024/04/07 09:31:49;;;;;;;22.93;21.50;;;;;;;;;;5034750;28;21067;-74
2024/04/07 09:34:15;;;;;;;23.20;21.50;;;;;;;;;;5033732;28;20450;-75
2024/04/07 09:36:42;;;;;;;24.37;22.60;;;;;;;;;;5033416;28;20453;-73
2024/04/07 09:39:08;;;;;;;23.60;22.10;;;;;;;;;;5033030;28;20468;-73
2024/04/07 09:41:37;;;;;;;23.77;22.07;;;;;;;;;;5032514;28;20490;-75
2024/04/07 09:44:04;;;;;;;23.70;22.30;;;;;;;;;;5031967;28;20492;-74
2024/04/07 09:46:35;;;;;;;22.80;21.40;;;;;;;;;;5029557;28;20429;-76
2024/04/07 09:49:02;;;;;;;23.20;21.70;;;;;;;;;;5033656;28;20451;-75
2024/04/07 09:51:31;;;;;;;21.90;20.63;;;;;;;;;;5027918;28;20457;-74
2024/04/07 09:54:03;;;;;;;23.33;21.93;;;;;;;;;;5013772;28;20840;-75
2024/04/07 09:56:33;;;;;;;23.60;22.10;;;;;;;;;;5033926;28;20528;-75
2024/04/07 09:59:02;;;;;;;23.90;22.27;;;;;;;;;;5053316;28;20420;-75
2024/04/07 10:01:29;;;;;;;22.13;20.80;;;;;;;;;;5052326;28;20552;-75
2024/04/07 10:03:56;;;;;;;22.30;20.83;;;;;;;;;;5012632;28;20966;-74
2024/04/07 10:06:23;;;;;;;22.07;20.87;;;;;;;;;;5030590;28;20446;-75
2024/04/07 10:08:50;;;;;;;23.33;22.00;;;;;;;;;;5034316;28;20458;-80
2024/04/07 10:11:18;;;;;;;21.93;20.70;;;;;;;;;;5036066;28;20505;-80
2024/04/07 10:13:44;;;;;;;22.80;21.40;;;;;;;;;;5034659;28;20478;-79
2024/04/07 10:16:14;;;;;;;22.80;21.40;;;;;;;;;;5036432;28;20460;-77
2024/04/07 10:18:41;;;;;;;23.33;22.03;;;;;;;;;;5035394;28;20476;-79
2024/04/07 10:21:08;;;;;;;23.27;21.87;;;;;;;;;;5035523;28;20457;-79
2024/04/07 10:23:35;;;;;;;23.50;21.97;;;;;;;;;;5035168;28;20818;-79
2024/04/07 10:26:04;;;;;;;22.13;20.83;;;;;;;;;;5036167;28;20812;-80
2024/04/07 10:28:44;;;;;;;21.43;20.23;;;;;;;;;;5035787;28;20535;-80
2024/04/07 10:31:13;;;;;;;22.40;20.80;;;;;;;;;;5036013;28;20837;-79
2024/04/07 10:33:39;;;;;;;22.57;21.17;;;;;;;;;;5036155;28;20450;-79
2024/04/07 10:36:08;;;;;;;22.90;21.60;;;;;;;;;;5035492;28;20561;-80
2024/04/07 10:38:43;;;;;;;23.23;21.77;;;;;;;;;;5034844;28;20489;-76
2024/04/07 10:41:16;;;;;;;22.93;21.53;;;;;;;;;;5032194;28;20440;-76
2024/04/07 10:43:42;;;;;;;22.70;21.40;;;;;;;;;;5031884;28;20449;-75
2024/04/07 10:46:09;;;;;;;23.10;21.80;;;;;;;;;;5031698;28;20957;-74
2024/04/07 10:48:37;;;;;;;23.27;21.77;;;;;;;;;;5031003;28;20509;-75
2024/04/07 10:51:06;;;;;;;23.73;22.23;;;;;;;;;;5030678;28;20482;-74
2024/04/07 10:53:32;;;;;;;24.07;22.60;;;;;;;;;;5030998;28;21007;-75
2024/04/07 10:55:59;;;;;;;22.97;21.63;;;;;;;;;;5030297;28;21082;-76
2024/04/07 10:58:25;;;;;;;22.00;20.63;;;;;;;;;;5024275;28;20439;-80
2024/04/07 11:00:52;;;;;;;22.83;21.43;;;;;;;;;;5016173;28;20498;-80
2024/04/07 11:03:18;;;;;;;22.83;21.43;;;;;;;;;;5016629;28;20453;-81
2024/04/07 11:05:47;;;;;;;23.33;21.73;;;;;;;;;;5026405;28;20478;-81
2024/04/07 11:08:13;;;;;;;24.27;22.67;;;;;;;;;;5035401;28;20426;-81
2024/04/07 11:10:40;;;;;;;23.47;21.97;;;;;;;;;;5035503;28;20443;-81
2024/04/07 11:13:07;;;;;;;23.13;21.40;;;;;;;;;;5036142;28;20421;-81
2024/04/07 11:15:34;;;;;;;24.17;22.67;;;;;;;;;;5026120;28;20825;-74
2024/04/07 11:18:00;;;;;;;23.13;21.53;;;;;;;;;;5019301;28;20969;-74
2024/04/07 11:20:27;;;;;;;23.63;22.33;;;;;;;;;;5025894;28;21023;-74
2024/04/07 11:22:55;;;;;;;24.23;22.77;;;;;;;;;;5050653;28;20473;-73
2024/04/07 11:25:22;;;;;;;23.30;21.80;;;;;;;;;;5050965;28;20467;-75
2024/04/07 11:27:49;;;;;;;23.17;21.60;;;;;;;;;;5031462;28;20914;-74
2024/04/07 11:30:15;;;;;;;23.17;21.67;;;;;;;;;;5030006;28;20942;-74
2024/04/07 11:32:42;;;;;;;23.30;20.93;;;;;;;;;;5044567;28;20486;-74
2024/04/07 11:35:09;;;;;;;22.30;20.80;;;;;;;;;;5048836;28;20439;-75
2024/04/07 11:37:35;;;;;;;23.30;21.80;;;;;;;;;;5030575;28;20422;-74
2024/04/07 11:40:04;;;;;;;22.03;20.60;;;;;;;;;;5029756;28;20516;-74
2024/04/07 11:42:30;;;;;;;22.63;21.33;;;;;;;;;;5024207;28;20500;-74
2024/04/07 11:44:57;;;;;;;22.70;21.00;;;;;;;;;;5029957;28;20539;-75
2024/04/07 11:47:23;;;;;;;23.20;21.80;;;;;;;;;;5029538;28;20463;-74
2024/04/07 11:49:50;;;;;;;22.97;21.57;;;;;;;;;;5029548;28;20538;-74
2024/04/07 11:52:16;;;;;;;22.53;21.23;;;;;;;;;;5035180;28;20466;-73
2024/04/07 11:54:43;;;;;;;22.37;21.07;;;;;;;;;;5035487;28;20481;-74
2024/04/07 11:57:11;;;;;;;23.07;21.67;;;;;;;;;;5022109;28;20463;-73
2024/04/07 11:59:38;;;;;;;22.83;21.43;;;;;;;;;;5028564;28;20864;-74
2024/04/07 12:02:04;;;;;;;22.90;21.50;;;;;;;;;;5026611;28;20951;-74
2024/04/07 12:04:32;;;;;;;22.90;21.50;;;;;;;;;;5031045;28;20479;-75
2024/04/07 12:06:58;;;;;;;23.17;21.57;;;;;;;;;;5021963;28;20430;-74
2024/04/07 12:09:25;;;;;;;22.67;21.17;;;;;;;;;;5030247;28;20497;-72
2024/04/07 12:11:52;;;;;;;22.20;20.90;;;;;;;;;;5029686;28;20478;-73
2024/04/07 12:14:21;;;;;;;22.30;20.80;;;;;;;;;;5028307;28;20455;-73
2024/04/07 12:16:47;;;;;;;22.23;20.83;;;;;;;;;;5029815;28;20462;-73
2024/04/07 12:19:14;;;;;;;22.73;21.23;;;;;;;;;;5027994;28;20556;-74
2024/04/07 12:21:40;;;;;;;23.33;21.93;;;;;;;;;;5030243;28;20471;-74
2024/04/07 12:24:07;;;;;;;22.00;20.70;;;;;;;;;;5030489;28;20484;-74
2024/04/07 12:26:34;;;;;;;22.37;20.90;;;;;;;;;;5030311;28;20865;-74
2024/04/07 12:29:01;;;;;;;21.70;20.40;;;;;;;;;;5030357;28;20430;-74
2024/04/07 12:31:28;;;;;;;22.50;21.20;;;;;;;;;;5029159;28;21326;-73
2024/04/07 12:33:56;;;;;;;22.87;21.27;;;;;;;;;;5030172;28;20457;-73
2024/04/07 12:36:22;;;;;;;22.50;20.80;;;;;;;;;;5031319;28;20521;-79
2024/04/07 12:38:49;;;;;;;23.17;21.60;;;;;;;;;;5031481;28;20541;-80
2024/04/07 12:41:16;;;;;;;22.10;20.70;;;;;;;;;;5039179;28;20484;-79
2024/04/07 12:43:43;;;;;;;22.40;20.73;;;;;;;;;;5033506;28;20936;-78
2024/04/07 12:46:11;;;;;;;21.13;19.83;;;;;;;;;;5033218;28;20434;-79
2024/04/07 12:48:40;;;;;;;21.70;20.30;;;;;;;;;;5033273;28;20427;-80
2024/04/07 12:51:06;;;;;;;21.23;19.93;;;;;;;;;;5023865;28;20509;-75
2024/04/07 12:53:33;;;;;;;21.47;20.10;;;;;;;;;;5047824;28;20541;-74
2024/04/07 12:55:59;;;;;;;22.27;20.63;;;;;;;;;;5050020;28;20499;-73
2024/04/07 12:58:26;;;;;;;21.87;20.57;;;;;;;;;;5030845;28;20522;-77
2024/04/07 13:00:52;;;;;;;22.37;21.00;;;;;;;;;;5044754;28;20520;-76
2024/04/07 13:03:19;;;;;;;22.73;21.33;;;;;;;;;;5039377;28;20467;-76
2024/04/07 13:05:46;;;;;;;22.17;20.73;;;;;;;;;;5050513;28;20585;-76
2024/04/07 13:08:13;;;;;;;22.33;20.90;;;;;;;;;;5050243;28;20455;-76
2024/04/07 13:10:39;;;;;;;21.90;20.50;;;;;;;;;;5050681;28;20455;-76
2024/04/07 13:13:07;;;;;;;22.33;20.90;;;;;;;;;;5034133;28;20495;-76
2024/04/07 13:15:33;;;;;;;22.30;21.00;;;;;;;;;;5030610;28;21131;-76
2024/04/07 13:18:00;;;;;;;21.77;20.33;;;;;;;;;;5030479;28;20510;-76
2024/04/07 13:20:27;;;;;;;22.50;20.90;;;;;;;;;;5030147;28;20566;-76
2024/04/07 13:22:56;;;;;;;22.27;20.87;;;;;;;;;;5030700;28;20457;-76
2024/04/07 13:25:22;;;;;;;22.53;20.90;;;;;;;;;;5031691;28;20495;-76
2024/04/07 13:27:51;;;;;;;23.50;21.87;;;;;;;;;;5051084;28;20544;-76
2024/04/07 13:30:17;;;;;;;22.67;21.20;;;;;;;;;;5047967;28;20478;-76
2024/04/07 13:32:45;;;;;;;22.80;21.50;;;;;;;;;;5049894;28;20482;-76
2024/04/07 13:35:11;;;;;;;22.43;21.23;;;;;;;;;;5041814;28;20894;-76
2024/04/07 13:37:38;;;;;;;21.60;20.30;;;;;;;;;;5029412;28;20463;-76
2024/04/07 13:40:06;;;;;;;22.00;20.70;;;;;;;;;;5029867;28;20804;-76
2024/04/07 13:42:33;;;;;;;23.47;21.57;;;;;;;;;;5030057;28;20478;-76
2024/04/07 13:45:00;;;;;;;23.73;22.33;;;;;;;;;;5032929;28;20522;-82
2024/04/07 13:47:27;;;;;;;21.97;20.77;;;;;;;;;;5033957;28;20967;-77
2024/04/07 13:49:53;;;;;;;22.40;21.00;;;;;;;;;;5033266;28;20856;-77
2024/04/07 13:52:20;;;;;;;21.70;20.40;;;;;;;;;;5033504;28;20497;-77
2024/04/07 13:54:46;;;;;;;21.40;20.17;;;;;;;;;;5034323;28;20475;-77
2024/04/07 13:57:16;;;;;;;21.87;20.57;;;;;;;;;;5033801;28;20460;-76
2024/04/07 13:59:42;;;;;;;22.50;21.00;;;;;;;;;;5034385;28;20523;-77
2024/04/07 14:02:09;;;;;;;22.20;20.90;;;;;;;;;;5030764;28;20502;-78
2024/04/07 14:04:35;;;;;;;24.50;22.97;;;;;;;;;;5033275;28;20500;-76
2024/04/07 14:07:02;;;;;;;22.43;21.13;;;;;;;;;;5019288;28;20452;-77
2024/04/07 14:09:28;;;;;;;22.33;21.03;;;;;;;;;;5013710;28;20457;-75
2024/04/07 14:11:55;;;;;;;23.13;21.67;;;;;;;;;;5016299;28;20543;-76
2024/04/07 14:14:23;;;;;;;23.73;22.10;;;;;;;;;;5018297;28;20445;-77
2024/04/07 14:16:50;;;;;;;22.20;20.97;;;;;;;;;;5014350;28;20817;-76
2024/04/07 14:19:16;;;;;;;23.20;21.83;;;;;;;;;;5030731;28;20455;-78